Red Lodge, MT (59068)

6:04 AM MST on February 26, 2017 (GMT -0700)
Island at Rock Creek | | Change Station

Elev 5545 ft 45.19 °N, 109.24 °W | Updated 51 seconds ago

Partly Cloudy
Partly Cloudy
16.0 °F
Feels Like 6 °F
N
6.8
Wind Variable Wind from SW

Today
High -- | Low -- °F
--% Chance of Precip.
Yesterday
High -- | Low -- °F
Precip. -- in
Pressure 29.87 in
Visibility 10.0 miles
Clouds Clear
Windchill 6 °F
Dew Point 2 °F
Humidity 54%
Rainfall 0.00 in
Snow Depth Not available.
6:59 AM 6:00 PM
Waning Crescent, 0% visible
METAR KCOD 261256Z AUTO 26012G24KT 10SM CLR M06/M17 A2971 RMK AO2 PK WND 24036/1204 SLP113 T10611167 FZRANO
Pressure 29.87 in
Visibility 10.0 miles
Clouds Clear
Windchill 6 °F
Dew Point 2 °F
Humidity 54%
Rainfall 0.00 in
Snow Depth Not available.
6:59 AM 6:00 PM
Waning Crescent, 0% visible
METAR KCOD 261256Z AUTO 26012G24KT 10SM CLR M06/M17 A2971 RMK AO2 PK WND 24036/1204 SLP113 T10611167 FZRANO

Get Your Daily Forecast Email!

Thanks for signing up!

Be on the lookout for a verification email in your inbox.

You'll start receiving the daily forecast at 8 AM.

×

10-Day Weather Forecast

Almanac

Astronomy

Feb. 26, 2017 Rise Set
Actual Time
Civil Twilight
Nautical Twilight
Astronomical Twilight
Moon
Length of Visible Light
Length of Day
Tomorrow will be .
, % of the Moon is Illuminated

Today's Extremes

State Highs State Lows

Community

WunderPhotos

Upload Photos

1,962,540 photos uploaded!

WunderBlog® & News

Nearby

Air Quality

  Air Quality AQ Index Pollutant
Not available.

Snow Depth

Station Depth Elevation

Earthquake Activity

City Distance Mag. Time & Date
Minimum magnitude displayed is 2.5.

Coastal Water Temperatures

Place Temperature

Stations

Nearby Weather Stations

Station Location Temp. Windchill Dew Point Humidity Wind Precip. Elev Updated Type
                   

Watches & Warnings

There are currently no watches in effect.